TEJ133 SCTE-SCIE
Flight info
| Callsign | TEJ133 |
|---|---|
| Flight time | 0h 46m |
| Altitude | 34000 |
| Route | KIKOP2B KIKOP UV200 VLD UQ809 PANEX PANEX6C |
| Aircraft | A359/H-SDE2E3GHIJ3J4J5LM1ORWXY/LB1D1 |
Departure
| Time | 2026-04-26 21:23 |
|---|---|
| Airport | El Tepual International Airport (SCTE) |
Arrival
| Time | 2026-04-26 22:09 |
|---|---|
| Airport | Carriel Sur International Airport (SCIE) |
| Time | Latitude | Longitude | Altitude | Speed | Heading |
|---|---|---|---|---|---|
| 2026-04-26 21:12 | -41.43460 | -73.09731 | 307 ft | 0 kts | 271° |
| 2026-04-26 21:13 | -41.43460 | -73.09708 | 309 ft | 4 kts | 271° |
| 2026-04-26 21:13 | -41.43460 | -73.09697 | 307 ft | 4 kts | 271° |
| 2026-04-26 21:14 | -41.43461 | -73.09661 | 305 ft | 4 kts | 271° |
| 2026-04-26 21:14 | -41.43461 | -73.09630 | 305 ft | 4 kts | 264° |
| 2026-04-26 21:14 | -41.43454 | -73.09599 | 309 ft | 4 kts | 220° |
| 2026-04-26 21:14 | -41.43432 | -73.09589 | 307 ft | 4 kts | 171° |
| 2026-04-26 21:15 | -41.43405 | -73.09597 | 308 ft | 4 kts | 169° |
| 2026-04-26 21:15 | -41.43392 | -73.09599 | 307 ft | 0 kts | 181° |
| 2026-04-26 21:18 | -41.43393 | -73.09599 | 308 ft | 0 kts | 181° |
| 2026-04-26 21:18 | -41.43404 | -73.09603 | 311 ft | 2 kts | 202° |
| 2026-04-26 21:18 | -41.43407 | -73.09627 | 311 ft | 3 kts | 284° |
| 2026-04-26 21:19 | -41.43377 | -73.09625 | 309 ft | 11 kts | 17° |
| 2026-04-26 21:19 | -41.43281 | -73.09595 | 309 ft | 15 kts | 6° |
| 2026-04-26 21:19 | -41.43254 | -73.09593 | 311 ft | 12 kts | 2° |
| 2026-04-26 21:19 | -41.43139 | -73.09588 | 309 ft | 19 kts | 2° |
| 2026-04-26 21:20 | -41.42990 | -73.09582 | 310 ft | 24 kts | 2° |
| 2026-04-26 21:20 | -41.42811 | -73.09574 | 309 ft | 28 kts | 2° |
| 2026-04-26 21:20 | -41.42740 | -73.09568 | 309 ft | 2 kts | 15° |
| 2026-04-26 21:20 | -41.42714 | -73.09522 | 312 ft | 9 kts | 76° |
| 2026-04-26 21:21 | -41.42713 | -73.09448 | 312 ft | 8 kts | 91° |
| 2026-04-26 21:21 | -41.42719 | -73.09374 | 316 ft | 6 kts | 118° |
| 2026-04-26 21:21 | -41.42761 | -73.09359 | 314 ft | 0 kts | 181° |
| 2026-04-26 21:21 | -41.42765 | -73.09359 | 313 ft | 2 kts | 181° |
| 2026-04-26 21:22 | -41.42797 | -73.09360 | 315 ft | 1 kts | 181° |
| 2026-04-26 21:22 | -41.42800 | -73.09360 | 315 ft | 7 kts | 181° |
| 2026-04-26 21:22 | -41.43174 | -73.09374 | 315 ft | 101 kts | 181° |
| 2026-04-26 21:23 | -41.45292 | -73.09478 | 1496 ft | 167 kts | 187° |
| 2026-04-26 21:23 | -41.46334 | -73.10363 | 2144 ft | 199 kts | 236° |
| 2026-04-26 21:23 | -41.46650 | -73.12182 | 2710 ft | 214 kts | 278° |
| 2026-04-26 21:23 | -41.45924 | -73.14006 | 3144 ft | 240 kts | 317° |
| 2026-04-26 21:24 | -41.44384 | -73.14945 | 3764 ft | 251 kts | 349° |
| 2026-04-26 21:24 | -41.42635 | -73.15321 | 4398 ft | 259 kts | 350° |
| 2026-04-26 21:24 | -41.40844 | -73.15788 | 5039 ft | 266 kts | 346° |
| 2026-04-26 21:24 | -41.39032 | -73.16393 | 5648 ft | 272 kts | 343° |
| 2026-04-26 21:25 | -41.37191 | -73.17097 | 6247 ft | 278 kts | 341° |
| 2026-04-26 21:25 | -41.35317 | -73.17864 | 6823 ft | 285 kts | 340° |
| 2026-04-26 21:25 | -41.33410 | -73.18672 | 7386 ft | 290 kts | 339° |
| 2026-04-26 21:25 | -41.31502 | -73.19493 | 7983 ft | 294 kts | 339° |
| 2026-04-26 21:26 | -41.29546 | -73.20340 | 8607 ft | 297 kts | 338° |
| 2026-04-26 21:26 | -41.27566 | -73.21199 | 9229 ft | 302 kts | 338° |
| 2026-04-26 21:26 | -41.25475 | -73.21705 | 9806 ft | 312 kts | 358° |
| 2026-04-26 21:26 | -41.23324 | -73.21214 | 10184 ft | 316 kts | 14° |
| 2026-04-26 21:27 | -41.21202 | -73.20376 | 10298 ft | 319 kts | 16° |
| 2026-04-26 21:27 | -41.19073 | -73.19498 | 10399 ft | 323 kts | 16° |
| 2026-04-26 21:27 | -41.16909 | -73.18619 | 10462 ft | 327 kts | 16° |
| 2026-04-26 21:27 | -41.14711 | -73.17741 | 10532 ft | 336 kts | 15° |
| 2026-04-26 21:28 | -41.12418 | -73.16835 | 10718 ft | 352 kts | 15° |
| 2026-04-26 21:28 | -41.10019 | -73.15892 | 10929 ft | 366 kts | 15° |
| 2026-04-26 21:28 | -41.07539 | -73.14920 | 11241 ft | 376 kts | 15° |
| 2026-04-26 21:28 | -41.05002 | -73.13927 | 11746 ft | 382 kts | 15° |
| 2026-04-26 21:29 | -41.02441 | -73.12925 | 12589 ft | 386 kts | 15° |
| 2026-04-26 21:29 | -40.99851 | -73.11915 | 13456 ft | 390 kts | 14° |
| 2026-04-26 21:29 | -40.97261 | -73.10906 | 14262 ft | 395 kts | 14° |
| 2026-04-26 21:29 | -40.94605 | -73.09891 | 14922 ft | 401 kts | 13° |
| 2026-04-26 21:30 | -40.91847 | -73.09238 | 15547 ft | 405 kts | 3° |
| 2026-04-26 21:30 | -40.89019 | -73.08992 | 16185 ft | 410 kts | 359° |
| 2026-04-26 21:30 | -40.86146 | -73.08934 | 16819 ft | 415 kts | 356° |
| 2026-04-26 21:30 | -40.84224 | -73.08949 | 17258 ft | 419 kts | 356° |
| 2026-04-26 21:31 | -40.80276 | -73.09014 | 18130 ft | 427 kts | 355° |
| 2026-04-26 21:31 | -40.77283 | -73.09055 | 18772 ft | 433 kts | 356° |
| 2026-04-26 21:31 | -40.74286 | -73.09074 | 19374 ft | 437 kts | 356° |
| 2026-04-26 21:31 | -40.71235 | -73.09074 | 20061 ft | 440 kts | 356° |
| 2026-04-26 21:32 | -40.68164 | -73.09061 | 20764 ft | 443 kts | 357° |
| 2026-04-26 21:32 | -40.65059 | -73.09042 | 21444 ft | 447 kts | 357° |
| 2026-04-26 21:32 | -40.61931 | -73.09019 | 22123 ft | 451 kts | 357° |
| 2026-04-26 21:32 | -40.58781 | -73.08996 | 22807 ft | 455 kts | 357° |
| 2026-04-26 21:33 | -40.55595 | -73.08973 | 23490 ft | 459 kts | 357° |
| 2026-04-26 21:33 | -40.52385 | -73.08951 | 24126 ft | 463 kts | 357° |
| 2026-04-26 21:33 | -40.49136 | -73.08929 | 24658 ft | 468 kts | 357° |
| 2026-04-26 21:33 | -40.45868 | -73.08909 | 25196 ft | 472 kts | 357° |
| 2026-04-26 21:34 | -40.42569 | -73.08888 | 25747 ft | 476 kts | 357° |
| 2026-04-26 21:34 | -40.39241 | -73.08867 | 26300 ft | 480 kts | 357° |
| 2026-04-26 21:34 | -40.35882 | -73.08846 | 26846 ft | 483 kts | 357° |
| 2026-04-26 21:34 | -40.32511 | -73.08825 | 27390 ft | 487 kts | 357° |
| 2026-04-26 21:35 | -40.29112 | -73.08804 | 27935 ft | 490 kts | 357° |
| 2026-04-26 21:35 | -40.25732 | -73.08783 | 28500 ft | 493 kts | 357° |
| 2026-04-26 21:35 | -40.22277 | -73.08765 | 29008 ft | 497 kts | 357° |
| 2026-04-26 21:35 | -40.18808 | -73.08751 | 29500 ft | 501 kts | 357° |
| 2026-04-26 21:36 | -40.15310 | -73.08739 | 29994 ft | 505 kts | 357° |
| 2026-04-26 21:36 | -40.12974 | -73.08732 | 30307 ft | 507 kts | 357° |
| 2026-04-26 21:36 | -40.08222 | -73.08715 | 30786 ft | 513 kts | 357° |
| 2026-04-26 21:36 | -40.04635 | -73.08702 | 31124 ft | 518 kts | 357° |
| 2026-04-26 21:37 | -40.01019 | -73.08689 | 31468 ft | 522 kts | 358° |
| 2026-04-26 21:37 | -39.97366 | -73.08676 | 31752 ft | 527 kts | 358° |
| 2026-04-26 21:37 | -39.93674 | -73.08662 | 32069 ft | 532 kts | 358° |
| 2026-04-26 21:37 | -39.89961 | -73.08648 | 32376 ft | 536 kts | 358° |
| 2026-04-26 21:38 | -39.86219 | -73.08634 | 32659 ft | 540 kts | 358° |
| 2026-04-26 21:38 | -39.82492 | -73.08620 | 32983 ft | 543 kts | 358° |
| 2026-04-26 21:38 | -39.78693 | -73.08604 | 33270 ft | 548 kts | 358° |
| 2026-04-26 21:38 | -39.74864 | -73.08589 | 33552 ft | 552 kts | 358° |
| 2026-04-26 21:39 | -39.71010 | -73.08575 | 33832 ft | 555 kts | 359° |
| 2026-04-26 21:39 | -39.67136 | -73.08560 | 34109 ft | 559 kts | 359° |
| 2026-04-26 21:39 | -39.63222 | -73.08537 | 34300 ft | 561 kts | 359° |
| 2026-04-26 21:39 | -39.59365 | -73.08498 | 34338 ft | 549 kts | 359° |
| 2026-04-26 21:40 | -39.51793 | -73.08409 | 34336 ft | 542 kts | 359° |
| 2026-04-26 21:40 | -39.44299 | -73.08328 | 34325 ft | 542 kts | 359° |
| 2026-04-26 21:41 | -39.37980 | -73.08265 | 34332 ft | 541 kts | 359° |
| 2026-04-26 21:41 | -39.30491 | -73.08191 | 34335 ft | 541 kts | 359° |
| 2026-04-26 21:42 | -39.22955 | -73.08124 | 34333 ft | 541 kts | 359° |
| 2026-04-26 21:42 | -39.15433 | -73.08173 | 34331 ft | 539 kts | 358° |
| 2026-04-26 21:43 | -39.07932 | -73.08264 | 34328 ft | 539 kts | 358° |
| 2026-04-26 21:43 | -39.00411 | -73.08341 | 34325 ft | 539 kts | 359° |
| 2026-04-26 21:44 | -38.92926 | -73.08405 | 34333 ft | 537 kts | 359° |
| 2026-04-26 21:44 | -38.85461 | -73.08465 | 34328 ft | 536 kts | 359° |
| 2026-04-26 21:45 | -38.77996 | -73.08525 | 34314 ft | 536 kts | 359° |
| 2026-04-26 21:45 | -38.70589 | -73.08585 | 34326 ft | 534 kts | 359° |
| 2026-04-26 21:46 | -38.63159 | -73.08645 | 34329 ft | 534 kts | 359° |
| 2026-04-26 21:46 | -38.55735 | -73.08705 | 34316 ft | 534 kts | 359° |
| 2026-04-26 21:47 | -38.48297 | -73.08767 | 34319 ft | 533 kts | 359° |
| 2026-04-26 21:47 | -38.40872 | -73.08824 | 34317 ft | 533 kts | 359° |
| 2026-04-26 21:48 | -38.33478 | -73.08878 | 34034 ft | 526 kts | 359° |
| 2026-04-26 21:48 | -38.29854 | -73.08904 | 33188 ft | 528 kts | 358° |
| 2026-04-26 21:48 | -38.26169 | -73.08931 | 32244 ft | 532 kts | 358° |
| 2026-04-26 21:49 | -38.22449 | -73.08958 | 31293 ft | 535 kts | 358° |
| 2026-04-26 21:49 | -38.18718 | -73.08986 | 30383 ft | 537 kts | 357° |
| 2026-04-26 21:49 | -38.14987 | -73.09016 | 29405 ft | 537 kts | 357° |
| 2026-04-26 21:49 | -38.11245 | -73.09047 | 28487 ft | 535 kts | 357° |
| 2026-04-26 21:50 | -38.07534 | -73.09076 | 27713 ft | 531 kts | 357° |
| 2026-04-26 21:50 | -38.03860 | -73.09102 | 27095 ft | 524 kts | 357° |
| 2026-04-26 21:50 | -38.00240 | -73.09127 | 26509 ft | 518 kts | 357° |
| 2026-04-26 21:50 | -37.96656 | -73.09152 | 25911 ft | 511 kts | 357° |
| 2026-04-26 21:51 | -37.93115 | -73.09178 | 25332 ft | 505 kts | 357° |
| 2026-04-26 21:51 | -37.89618 | -73.09204 | 24759 ft | 499 kts | 357° |
| 2026-04-26 21:51 | -37.86166 | -73.09231 | 24168 ft | 493 kts | 357° |
| 2026-04-26 21:51 | -37.82749 | -73.09257 | 23547 ft | 488 kts | 357° |
| 2026-04-26 21:52 | -37.79381 | -73.09283 | 22926 ft | 481 kts | 357° |
| 2026-04-26 21:52 | -37.76064 | -73.09308 | 22355 ft | 474 kts | 357° |
| 2026-04-26 21:52 | -37.72772 | -73.09261 | 21766 ft | 468 kts | 359° |
| 2026-04-26 21:52 | -37.69573 | -73.09151 | 21195 ft | 462 kts | 359° |
| 2026-04-26 21:53 | -37.66379 | -73.09041 | 20615 ft | 457 kts | 359° |
| 2026-04-26 21:53 | -37.63218 | -73.08941 | 20053 ft | 453 kts | 359° |
| 2026-04-26 21:53 | -37.60081 | -73.08845 | 19471 ft | 450 kts | 360° |
| 2026-04-26 21:53 | -37.56960 | -73.08754 | 18903 ft | 447 kts | 360° |
| 2026-04-26 21:54 | -37.53852 | -73.08665 | 18298 ft | 444 kts | 360° |
| 2026-04-26 21:54 | -37.50782 | -73.08577 | 17691 ft | 439 kts | 360° |
| 2026-04-26 21:54 | -37.47739 | -73.08490 | 17131 ft | 435 kts | 360° |
| 2026-04-26 21:54 | -37.44729 | -73.08404 | 16566 ft | 431 kts | 360° |
| 2026-04-26 21:55 | -37.41746 | -73.08320 | 15998 ft | 426 kts | 360° |
| 2026-04-26 21:55 | -37.38794 | -73.08237 | 15450 ft | 422 kts | 360° |
| 2026-04-26 21:55 | -37.35869 | -73.08156 | 14889 ft | 419 kts | 360° |
| 2026-04-26 21:55 | -37.32963 | -73.08075 | 14344 ft | 416 kts | 360° |
| 2026-04-26 21:56 | -37.30084 | -73.07994 | 13759 ft | 412 kts | 360° |
| 2026-04-26 21:56 | -37.27225 | -73.07914 | 13184 ft | 408 kts | 0° |
| 2026-04-26 21:56 | -37.24438 | -73.07836 | 12650 ft | 403 kts | 0° |
| 2026-04-26 21:56 | -37.21645 | -73.07758 | 12102 ft | 400 kts | 0° |
| 2026-04-26 21:57 | -37.18872 | -73.07679 | 11557 ft | 396 kts | 0° |
| 2026-04-26 21:57 | -37.16162 | -73.07604 | 11351 ft | 381 kts | 0° |
| 2026-04-26 21:57 | -37.13568 | -73.07531 | 11240 ft | 364 kts | 0° |
| 2026-04-26 21:57 | -37.11089 | -73.07461 | 11127 ft | 348 kts | 0° |
| 2026-04-26 21:58 | -37.08715 | -73.07392 | 10976 ft | 333 kts | 0° |
| 2026-04-26 21:58 | -37.06441 | -73.07330 | 10832 ft | 321 kts | 0° |
| 2026-04-26 21:58 | -37.04226 | -73.07268 | 10597 ft | 316 kts | 0° |
| 2026-04-26 21:58 | -37.02064 | -73.06903 | 10263 ft | 314 kts | 18° |
| 2026-04-26 21:59 | -37.00036 | -73.05893 | 9843 ft | 314 kts | 26° |
| 2026-04-26 21:59 | -36.98045 | -73.04733 | 9384 ft | 316 kts | 27° |
| 2026-04-26 21:59 | -36.96057 | -73.03571 | 9052 ft | 314 kts | 27° |
| 2026-04-26 21:59 | -36.94082 | -73.02423 | 8745 ft | 312 kts | 26° |
| 2026-04-26 22:00 | -36.92143 | -73.01301 | 8445 ft | 309 kts | 26° |
| 2026-04-26 22:00 | -36.90191 | -73.00176 | 8136 ft | 308 kts | 26° |
| 2026-04-26 22:00 | -36.88258 | -72.99054 | 7818 ft | 306 kts | 27° |
| 2026-04-26 22:00 | -36.86330 | -72.97938 | 7539 ft | 305 kts | 27° |
| 2026-04-26 22:01 | -36.84410 | -72.96815 | 7232 ft | 302 kts | 27° |
| 2026-04-26 22:01 | -36.82513 | -72.95698 | 6932 ft | 300 kts | 27° |
| 2026-04-26 22:01 | -36.80631 | -72.94589 | 6646 ft | 299 kts | 27° |
| 2026-04-26 22:01 | -36.78751 | -72.93489 | 6327 ft | 297 kts | 27° |
| 2026-04-26 22:02 | -36.76905 | -72.92414 | 6018 ft | 295 kts | 27° |
| 2026-04-26 22:02 | -36.75054 | -72.91335 | 5720 ft | 292 kts | 27° |
| 2026-04-26 22:02 | -36.73219 | -72.90266 | 5424 ft | 290 kts | 28° |
| 2026-04-26 22:02 | -36.71402 | -72.89206 | 5127 ft | 288 kts | 27° |
| 2026-04-26 22:03 | -36.69588 | -72.88152 | 4836 ft | 286 kts | 28° |
| 2026-04-26 22:03 | -36.67794 | -72.87111 | 4535 ft | 283 kts | 27° |
| 2026-04-26 22:03 | -36.65904 | -72.86414 | 4117 ft | 287 kts | 5° |
| 2026-04-26 22:03 | -36.63974 | -72.86893 | 3662 ft | 282 kts | 329° |
| 2026-04-26 22:04 | -36.62590 | -72.88512 | 3518 ft | 270 kts | 298° |
| 2026-04-26 22:04 | -36.61734 | -72.90530 | 3499 ft | 261 kts | 290° |
| 2026-04-26 22:04 | -36.61010 | -72.92520 | 3466 ft | 245 kts | 288° |
| 2026-04-26 22:04 | -36.60763 | -72.94493 | 3270 ft | 222 kts | 254° |
| 2026-04-26 22:05 | -36.61389 | -72.96133 | 3096 ft | 203 kts | 226° |
| 2026-04-26 22:05 | -36.62333 | -72.97346 | 2946 ft | 188 kts | 214° |
| 2026-04-26 22:05 | -36.63387 | -72.98170 | 2828 ft | 173 kts | 200° |
| 2026-04-26 22:05 | -36.64468 | -72.98804 | 2581 ft | 171 kts | 201° |
| 2026-04-26 22:06 | -36.65528 | -72.99438 | 2359 ft | 167 kts | 201° |
| 2026-04-26 22:06 | -36.66560 | -73.00042 | 2163 ft | 160 kts | 201° |
| 2026-04-26 22:06 | -36.67551 | -73.00623 | 1909 ft | 154 kts | 202° |
| 2026-04-26 22:06 | -36.68479 | -73.01169 | 1711 ft | 140 kts | 202° |
| 2026-04-26 22:07 | -36.69321 | -73.01662 | 1528 ft | 127 kts | 204° |
| 2026-04-26 22:07 | -36.70087 | -73.02110 | 1373 ft | 117 kts | 205° |
| 2026-04-26 22:07 | -36.70816 | -73.02538 | 1206 ft | 115 kts | 205° |
| 2026-04-26 22:07 | -36.71536 | -73.02959 | 1036 ft | 114 kts | 206° |
| 2026-04-26 22:08 | -36.72244 | -73.03376 | 832 ft | 113 kts | 206° |
| 2026-04-26 22:08 | -36.72982 | -73.03833 | 720 ft | 119 kts | 205° |
| 2026-04-26 22:08 | -36.73731 | -73.04282 | 577 ft | 121 kts | 205° |
| 2026-04-26 22:08 | -36.74489 | -73.04717 | 465 ft | 119 kts | 205° |
| 2026-04-26 22:09 | -36.75223 | -73.05145 | 300 ft | 114 kts | 205° |
| 2026-04-26 22:09 | -36.75948 | -73.05560 | 143 ft | 117 kts | 206° |
| 2026-04-26 22:09 | -36.76667 | -73.05980 | 69 ft | 103 kts | 204° |
| 2026-04-26 22:09 | -36.77098 | -73.06229 | 67 ft | 26 kts | 205° |
| 2026-04-26 22:10 | -36.77219 | -73.06288 | 68 ft | 18 kts | 196° |
| 2026-04-26 22:10 | -36.77333 | -73.06321 | 65 ft | 16 kts | 191° |
| 2026-04-26 22:10 | -36.77417 | -73.06332 | 66 ft | 12 kts | 181° |
| 2026-04-26 22:10 | -36.77490 | -73.06326 | 64 ft | 11 kts | 175° |
| 2026-04-26 22:11 | -36.77560 | -73.06318 | 63 ft | 0 kts | 174° |
| 2026-04-26 22:11 | -36.77566 | -73.06318 | 63 ft | 3 kts | 175° |
| 2026-04-26 22:11 | -36.77607 | -73.06313 | 62 ft | 8 kts | 175° |
| 2026-04-26 22:11 | -36.77628 | -73.06297 | 62 ft | 1 kts | 115° |
| 2026-04-26 22:12 | -36.77624 | -73.06281 | 59 ft | 4 kts | 60° |
| 2026-04-26 22:12 | -36.77582 | -73.06255 | 57 ft | 9 kts | 27° |
| 2026-04-26 22:12 | -36.77513 | -73.06216 | 60 ft | 13 kts | 23° |
| 2026-04-26 22:12 | -36.77432 | -73.06167 | 57 ft | 12 kts | 35° |
| 2026-04-26 22:13 | -36.77430 | -73.06070 | 59 ft | 14 kts | 114° |
| 2026-04-26 22:13 | -36.77473 | -73.05948 | 63 ft | 17 kts | 113° |
| 2026-04-26 22:13 | -36.77524 | -73.05799 | 58 ft | 15 kts | 112° |
| 2026-04-26 22:13 | -36.77536 | -73.05783 | 57 ft | 7 kts | 149° |
| 2026-04-26 22:14 | -36.77570 | -73.05818 | 57 ft | 7 kts | 255° |
| 2026-04-26 22:14 | -36.77555 | -73.05879 | 58 ft | 9 kts | 288° |
| 2026-04-26 22:14 | -36.77541 | -73.05967 | 66 ft | 12 kts | 276° |
| 2026-04-26 22:14 | -36.77539 | -73.06078 | 64 ft | 13 kts | 258° |
| 2026-04-26 22:15 | -36.77571 | -73.06118 | 62 ft | 6 kts | 208° |
| 2026-04-26 22:15 | -36.77612 | -73.06145 | 59 ft | 5 kts | 200° |
| 2026-04-26 22:15 | -36.77641 | -73.06144 | 60 ft | 0 kts | 170° |
| 2026-04-26 22:15 | -36.77658 | -73.06141 | 60 ft | 4 kts | 172° |
| 2026-04-26 22:16 | -36.77664 | -73.06140 | 58 ft | 0 kts | 172° |